sensor_id;sensor_type;location;lat;lon;timestamp;pressure;altitude;pressure_sealevel;temperature;humidity
59831;BME280;45711;50.108;13.712;2024-01-16T00:00:55;96546.06;;;-0.27;99.57
59831;BME280;45711;50.108;13.712;2024-01-16T00:03:21;96548.13;;;-0.12;100.00
59831;BME280;45711;50.108;13.712;2024-01-16T00:05:47;96558.38;;;-0.10;100.00
59831;BME280;45711;50.108;13.712;2024-01-16T00:08:12;96555.44;;;-0.14;100.00
59831;BME280;45711;50.108;13.712;2024-01-16T00:10:39;96557.53;;;-0.16;100.00
59831;BME280;45711;50.108;13.712;2024-01-16T00:13:05;96543.88;;;-0.35;96.93
59831;BME280;45711;50.108;13.712;2024-01-16T00:15:31;96548.00;;;0.00;100.00
59831;BME280;45711;50.108;13.712;2024-01-16T00:17:56;96547.19;;;-0.39;97.79
59831;BME280;45711;50.108;13.712;2024-01-16T00:20:22;96551.31;;;-0.27;100.00
59831;BME280;45711;50.108;13.712;2024-01-16T00:22:48;96552.97;;;0.18;100.00
59831;BME280;45711;50.108;13.712;2024-01-16T00:25:14;96553.56;;;-0.35;99.56
59831;BME280;45711;50.108;13.712;2024-01-16T00:27:41;96563.84;;;-0.34;99.83
59831;BME280;45711;50.108;13.712;2024-01-16T00:30:08;96572.22;;;0.02;100.00
59831;BME280;45711;50.108;13.712;2024-01-16T00:32:34;96573.56;;;0.05;100.00
59831;BME280;45711;50.108;13.712;2024-01-16T00:35:00;96581.28;;;0.11;100.00
59831;BME280;45711;50.108;13.712;2024-01-16T00:37:25;96573.25;;;-0.38;99.75
59831;BME280;45711;50.108;13.712;2024-01-16T00:39:51;96590.06;;;-0.39;100.00
59831;BME280;45711;50.108;13.712;2024-01-16T00:42:17;96592.59;;;-0.27;100.00
59831;BME280;45711;50.108;13.712;2024-01-16T00:44:44;96589.41;;;-0.12;100.00
59831;BME280;45711;50.108;13.712;2024-01-16T00:47:09;96593.91;;;-0.46;100.00
59831;BME280;45711;50.108;13.712;2024-01-16T00:49:35;96597.63;;;-0.26;100.00
59831;BME280;45711;50.108;13.712;2024-01-16T00:52:01;96604.53;;;-0.19;100.00
59831;BME280;45711;50.108;13.712;2024-01-16T00:54:26;96602.47;;;-0.17;100.00
59831;BME280;45711;50.108;13.712;2024-01-16T00:56:52;96605.66;;;-0.49;100.00
59831;BME280;45711;50.108;13.712;2024-01-16T00:59:20;96608.59;;;-0.12;100.00
59831;BME280;45711;50.108;13.712;2024-01-16T01:01:47;96616.94;;;0.02;100.00
59831;BME280;45711;50.108;13.712;2024-01-16T01:04:13;96619.84;;;-0.16;100.00
59831;BME280;45711;50.108;13.712;2024-01-16T01:06:39;96620.72;;;-0.28;100.00
59831;BME280;45711;50.108;13.712;2024-01-16T01:09:04;96633.09;;;0.11;100.00
59831;BME280;45711;50.108;13.712;2024-01-16T01:11:30;96630.16;;;0.07;100.00
59831;BME280;45711;50.108;13.712;2024-01-16T01:13:55;96645.16;;;-0.10;100.00
59831;BME280;45711;50.108;13.712;2024-01-16T01:16:21;96640.06;;;0.00;100.00
59831;BME280;45711;50.108;13.712;2024-01-16T01:18:48;96643.09;;;-0.08;100.00
59831;BME280;45711;50.108;13.712;2024-01-16T01:21:14;96653.44;;;-0.02;100.00
59831;BME280;45711;50.108;13.712;2024-01-16T01:23:39;96663.00;;;0.05;100.00
59831;BME280;45711;50.108;13.712;2024-01-16T01:26:08;96658.53;;;0.05;100.00
59831;BME280;45711;50.108;13.712;2024-01-16T01:28:33;96672.63;;;-0.01;100.00
59831;BME280;45711;50.108;13.712;2024-01-16T01:30:59;96654.78;;;0.01;100.00
59831;BME280;45711;50.108;13.712;2024-01-16T01:33:27;96649.72;;;-0.39;100.00
59831;BME280;45711;50.108;13.712;2024-01-16T01:35:54;96658.75;;;0.04;100.00
59831;BME280;45711;50.108;13.712;2024-01-16T01:38:20;96659.34;;;0.06;100.00
59831;BME280;45711;50.108;13.712;2024-01-16T01:40:45;96664.34;;;-0.10;100.00
59831;BME280;45711;50.108;13.712;2024-01-16T01:43:17;96668.91;;;-0.05;100.00
59831;BME280;45711;50.108;13.712;2024-01-16T01:45:46;96664.13;;;-0.08;100.00
59831;BME280;45711;50.108;13.712;2024-01-16T01:48:12;96669.06;;;-0.12;100.00
59831;BME280;45711;50.108;13.712;2024-01-16T01:50:38;96677.69;;;-0.16;100.00
59831;BME280;45711;50.108;13.712;2024-01-16T01:53:05;96678.53;;;0.06;100.00
59831;BME280;45711;50.108;13.712;2024-01-16T01:55:31;96680.38;;;-0.11;100.00
59831;BME280;45711;50.108;13.712;2024-01-16T01:57:56;96691.16;;;0.26;100.00
59831;BME280;45711;50.108;13.712;2024-01-16T02:00:22;96695.66;;;0.09;100.00
59831;BME280;45711;50.108;13.712;2024-01-16T02:02:49;96681.66;;;0.03;100.00
59831;BME280;45711;50.108;13.712;2024-01-16T02:05:15;96692.81;;;0.10;100.00
59831;BME280;45711;50.108;13.712;2024-01-16T02:07:41;96692.47;;;0.07;100.00
59831;BME280;45711;50.108;13.712;2024-01-16T02:10:09;96689.41;;;-0.07;100.00
59831;BME280;45711;50.108;13.712;2024-01-16T02:12:34;96700.84;;;-0.13;100.00
59831;BME280;45711;50.108;13.712;2024-01-16T02:15:02;96691.69;;;-0.28;100.00
59831;BME280;45711;50.108;13.712;2024-01-16T02:17:28;96697.75;;;-0.10;100.00
59831;BME280;45711;50.108;13.712;2024-01-16T02:19:54;96688.75;;;-0.31;100.00
59831;BME280;45711;50.108;13.712;2024-01-16T02:22:20;96694.06;;;0.08;100.00
59831;BME280;45711;50.108;13.712;2024-01-16T02:24:48;96706.63;;;0.01;100.00
59831;BME280;45711;50.108;13.712;2024-01-16T02:27:14;96706.75;;;-0.40;100.00
59831;BME280;45711;50.108;13.712;2024-01-16T02:29:40;96697.53;;;-0.09;100.00
59831;BME280;45711;50.108;13.712;2024-01-16T02:32:06;96706.69;;;-0.11;100.00
59831;BME280;45711;50.108;13.712;2024-01-16T02:34:32;96703.66;;;-0.20;100.00
59831;BME280;45711;50.108;13.712;2024-01-16T02:36:58;96710.69;;;-0.09;100.00
59831;BME280;45711;50.108;13.712;2024-01-16T02:39:24;96717.66;;;-0.31;100.00
59831;BME280;45711;50.108;13.712;2024-01-16T02:41:51;96718.06;;;-0.06;100.00
59831;BME280;45711;50.108;13.712;2024-01-16T02:44:17;96720.22;;;-0.19;100.00
59831;BME280;45711;50.108;13.712;2024-01-16T02:46:43;96724.44;;;-0.18;100.00
59831;BME280;45711;50.108;13.712;2024-01-16T02:49:08;96715.25;;;-0.49;99.69
59831;BME280;45711;50.108;13.712;2024-01-16T02:51:34;96722.53;;;-0.06;100.00
59831;BME280;45711;50.108;13.712;2024-01-16T02:53:59;96720.53;;;-0.33;100.00
59831;BME280;45711;50.108;13.712;2024-01-16T02:56:25;96729.47;;;-0.17;100.00
59831;BME280;45711;50.108;13.712;2024-01-16T02:58:52;96741.34;;;-0.14;100.00
59831;BME280;45711;50.108;13.712;2024-01-16T03:01:18;96732.47;;;-0.42;100.00
59831;BME280;45711;50.108;13.712;2024-01-16T03:03:43;96739.97;;;-0.34;100.00
59831;BME280;45711;50.108;13.712;2024-01-16T03:06:09;96731.22;;;-0.22;100.00
59831;BME280;45711;50.108;13.712;2024-01-16T03:08:35;96741.59;;;0.01;100.00
59831;BME280;45711;50.108;13.712;2024-01-16T03:11:01;96744.38;;;-0.06;100.00
59831;BME280;45711;50.108;13.712;2024-01-16T03:13:26;96738.03;;;-0.55;99.17
59831;BME280;45711;50.108;13.712;2024-01-16T03:15:54;96753.91;;;-0.33;100.00
59831;BME280;45711;50.108;13.712;2024-01-16T03:18:19;96754.69;;;-0.04;100.00
59831;BME280;45711;50.108;13.712;2024-01-16T03:20:45;96744.75;;;-0.31;100.00
59831;BME280;45711;50.108;13.712;2024-01-16T03:23:11;96761.81;;;-0.33;100.00
59831;BME280;45711;50.108;13.712;2024-01-16T03:25:37;96759.44;;;-0.35;100.00
59831;BME280;45711;50.108;13.712;2024-01-16T03:28:04;96761.81;;;-0.33;100.00
59831;BME280;45711;50.108;13.712;2024-01-16T03:30:33;96759.41;;;-0.18;100.00
59831;BME280;45711;50.108;13.712;2024-01-16T03:33:01;96766.06;;;0.02;100.00
59831;BME280;45711;50.108;13.712;2024-01-16T03:35:29;96764.63;;;-0.06;100.00
59831;BME280;45711;50.108;13.712;2024-01-16T03:37:55;96765.75;;;0.15;100.00
59831;BME280;45711;50.108;13.712;2024-01-16T03:40:21;96760.13;;;-0.22;100.00
59831;BME280;45711;50.108;13.712;2024-01-16T03:42:47;96752.59;;;-0.02;100.00
59831;BME280;45711;50.108;13.712;2024-01-16T03:45:13;96754.88;;;-0.06;100.00
59831;BME280;45711;50.108;13.712;2024-01-16T03:47:49;96755.47;;;0.13;100.00
59831;BME280;45711;50.108;13.712;2024-01-16T03:50:17;96766.06;;;0.02;100.00
59831;BME280;45711;50.108;13.712;2024-01-16T03:52:42;96761.28;;;-0.02;100.00
59831;BME280;45711;50.108;13.712;2024-01-16T03:55:08;96755.28;;;-0.14;100.00
59831;BME280;45711;50.108;13.712;2024-01-16T03:57:34;96756.56;;;-0.16;100.00
59831;BME280;45711;50.108;13.712;2024-01-16T04:00:00;96764.09;;;-0.37;100.00
59831;BME280;45711;50.108;13.712;2024-01-16T04:02:26;96778.41;;;-0.44;100.00
59831;BME280;45711;50.108;13.712;2024-01-16T04:04:51;96777.25;;;-0.37;100.00
59831;BME280;45711;50.108;13.712;2024-01-16T04:07:18;96774.59;;;-0.08;100.00
59831;BME280;45711;50.108;13.712;2024-01-16T04:09:44;96771.22;;;-0.20;100.00
59831;BME280;45711;50.108;13.712;2024-01-16T04:12:09;96792.19;;;0.08;100.00
59831;BME280;45711;50.108;13.712;2024-01-16T04:14:35;96790.00;;;-0.29;100.00
59831;BME280;45711;50.108;13.712;2024-01-16T04:17:01;96791.72;;;-0.06;100.00
59831;BME280;45711;50.108;13.712;2024-01-16T04:19:30;96793.69;;;-0.30;100.00
59831;BME280;45711;50.108;13.712;2024-01-16T04:21:59;96798.84;;;-0.63;100.00
59831;BME280;45711;50.108;13.712;2024-01-16T04:24:26;96818.50;;;-0.66;100.00
59831;BME280;45711;50.108;13.712;2024-01-16T04:26:55;96813.66;;;-0.97;100.00
59831;BME280;45711;50.108;13.712;2024-01-16T04:29:20;96820.28;;;-0.55;100.00
59831;BME280;45711;50.108;13.712;2024-01-16T04:31:46;96813.56;;;-0.62;100.00
59831;BME280;45711;50.108;13.712;2024-01-16T04:34:11;96814.59;;;-0.63;100.00
59831;BME280;45711;50.108;13.712;2024-01-16T04:36:37;96824.56;;;-0.65;100.00
59831;BME280;45711;50.108;13.712;2024-01-16T04:39:02;96818.13;;;-0.29;100.00
59831;BME280;45711;50.108;13.712;2024-01-16T04:41:32;96820.66;;;-0.63;100.00
59831;BME280;45711;50.108;13.712;2024-01-16T04:43:58;96817.66;;;-0.55;100.00
59831;BME280;45711;50.108;13.712;2024-01-16T04:46:23;96822.50;;;-0.35;100.00
59831;BME280;45711;50.108;13.712;2024-01-16T04:48:49;96829.25;;;-0.10;100.00
59831;BME280;45711;50.108;13.712;2024-01-16T04:51:15;96828.50;;;-0.51;100.00
59831;BME280;45711;50.108;13.712;2024-01-16T04:53:41;96833.09;;;-0.58;100.00
59831;BME280;45711;50.108;13.712;2024-01-16T04:56:06;96839.97;;;-0.29;100.00
59831;BME280;45711;50.108;13.712;2024-01-16T04:58:33;96840.97;;;-0.58;100.00
59831;BME280;45711;50.108;13.712;2024-01-16T05:00:59;96844.28;;;-0.51;100.00
59831;BME280;45711;50.108;13.712;2024-01-16T05:03:24;96841.56;;;-0.56;100.00
59831;BME280;45711;50.108;13.712;2024-01-16T05:05:50;96839.66;;;-0.72;100.00
59831;BME280;45711;50.108;13.712;2024-01-16T05:08:16;96845.16;;;-0.74;100.00
59831;BME280;45711;50.108;13.712;2024-01-16T05:10:41;96839.56;;;-0.49;100.00
59831;BME280;45711;50.108;13.712;2024-01-16T05:13:07;96841.75;;;-0.46;100.00
59831;BME280;45711;50.108;13.712;2024-01-16T05:15:34;96849.19;;;-0.55;100.00
59831;BME280;45711;50.108;13.712;2024-01-16T05:18:00;96853.28;;;-0.47;100.00
59831;BME280;45711;50.108;13.712;2024-01-16T05:20:25;96850.94;;;-0.32;100.00
59831;BME280;45711;50.108;13.712;2024-01-16T05:22:51;96854.56;;;-0.49;100.00
59831;BME280;45711;50.108;13.712;2024-01-16T05:25:17;96856.81;;;-0.41;100.00
59831;BME280;45711;50.108;13.712;2024-01-16T05:27:43;96856.56;;;-0.40;100.00
59831;BME280;45711;50.108;13.712;2024-01-16T05:30:09;96868.28;;;-0.59;100.00
59831;BME280;45711;50.108;13.712;2024-01-16T05:32:37;96864.50;;;-0.23;100.00
59831;BME280;45711;50.108;13.712;2024-01-16T05:35:05;96865.06;;;-0.49;100.00
59831;BME280;45711;50.108;13.712;2024-01-16T05:37:31;96875.47;;;-0.55;100.00
59831;BME280;45711;50.108;13.712;2024-01-16T05:39:57;96876.84;;;-0.52;100.00
59831;BME280;45711;50.108;13.712;2024-01-16T05:42:23;96872.16;;;-0.62;100.00
59831;BME280;45711;50.108;13.712;2024-01-16T05:44:48;96865.66;;;-0.59;100.00
59831;BME280;45711;50.108;13.712;2024-01-16T05:47:14;96873.44;;;-0.64;100.00
59831;BME280;45711;50.108;13.712;2024-01-16T05:49:41;96875.66;;;-0.33;100.00
59831;BME280;45711;50.108;13.712;2024-01-16T05:52:08;96869.78;;;-0.23;100.00
59831;BME280;45711;50.108;13.712;2024-01-16T05:54:33;96887.91;;;-0.38;100.00
59831;BME280;45711;50.108;13.712;2024-01-16T05:56:59;96889.75;;;-0.51;100.00
59831;BME280;45711;50.108;13.712;2024-01-16T05:59:24;96902.47;;;-0.31;100.00
59831;BME280;45711;50.108;13.712;2024-01-16T06:01:50;96887.91;;;-0.50;100.00
59831;BME280;45711;50.108;13.712;2024-01-16T06:04:16;96894.66;;;-0.42;100.00
59831;BME280;45711;50.108;13.712;2024-01-16T06:06:43;96889.59;;;-0.44;100.00
59831;BME280;45711;50.108;13.712;2024-01-16T06:09:13;96900.53;;;-0.23;100.00
59831;BME280;45711;50.108;13.712;2024-01-16T06:11:41;96897.47;;;-0.32;100.00
59831;BME280;45711;50.108;13.712;2024-01-16T06:14:07;96887.66;;;-0.37;100.00
59831;BME280;45711;50.108;13.712;2024-01-16T06:19:28;96896.50;;;-0.14;100.00
59831;BME280;45711;50.108;13.712;2024-01-16T06:21:55;96904.09;;;-0.01;100.00
59831;BME280;45711;50.108;13.712;2024-01-16T06:24:21;96897.16;;;-0.07;100.00
59831;BME280;45711;50.108;13.712;2024-01-16T06:26:46;96896.31;;;-0.65;100.00
59831;BME280;45711;50.108;13.712;2024-01-16T06:29:12;96898.06;;;-0.30;100.00
59831;BME280;45711;50.108;13.712;2024-01-16T06:31:38;96901.50;;;-0.41;100.00
59831;BME280;45711;50.108;13.712;2024-01-16T06:34:03;96910.06;;;-0.34;100.00
59831;BME280;45711;50.108;13.712;2024-01-16T06:36:29;96906.22;;;-0.55;100.00
59831;BME280;45711;50.108;13.712;2024-01-16T06:38:56;96917.97;;;-0.46;100.00
59831;BME280;45711;50.108;13.712;2024-01-16T06:41:21;96922.25;;;-0.28;100.00
59831;BME280;45711;50.108;13.712;2024-01-16T06:43:47;96930.31;;;-0.46;100.00
59831;BME280;45711;50.108;13.712;2024-01-16T06:46:13;96931.66;;;-0.44;100.00
59831;BME280;45711;50.108;13.712;2024-01-16T06:48:38;96936.19;;;-0.28;100.00
59831;BME280;45711;50.108;13.712;2024-01-16T06:51:04;96934.00;;;-0.19;100.00
59831;BME280;45711;50.108;13.712;2024-01-16T06:53:30;96933.88;;;-0.12;100.00
59831;BME280;45711;50.108;13.712;2024-01-16T06:55:57;96935.84;;;-0.19;100.00
59831;BME280;45711;50.108;13.712;2024-01-16T06:58:23;96945.09;;;-0.17;100.00
59831;BME280;45711;50.108;13.712;2024-01-16T07:00:49;96943.31;;;-0.40;100.00
59831;BME280;45711;50.108;13.712;2024-01-16T07:03:14;96945.63;;;-0.55;98.57
59831;BME280;45711;50.108;13.712;2024-01-16T07:05:40;96947.63;;;-0.22;99.19
59831;BME280;45711;50.108;13.712;2024-01-16T07:08:12;96951.59;;;-0.08;99.59
59831;BME280;45711;50.108;13.712;2024-01-16T07:10:37;96958.81;;;-0.15;99.92
59831;BME280;45711;50.108;13.712;2024-01-16T07:13:04;96952.47;;;-0.02;100.00
59831;BME280;45711;50.108;13.712;2024-01-16T07:15:32;96972.69;;;0.09;100.00
59831;BME280;45711;50.108;13.712;2024-01-16T07:17:58;96978.25;;;0.24;100.00
59831;BME280;45711;50.108;13.712;2024-01-16T07:20:23;96980.88;;;-0.04;99.25
59831;BME280;45711;50.108;13.712;2024-01-16T07:22:49;96986.03;;;0.19;100.00
59831;BME280;45711;50.108;13.712;2024-01-16T07:25:15;96992.53;;;0.29;100.00
59831;BME280;45711;50.108;13.712;2024-01-16T07:27:40;96995.84;;;0.24;100.00
59831;BME280;45711;50.108;13.712;2024-01-16T07:30:10;96985.66;;;0.28;100.00
59831;BME280;45711;50.108;13.712;2024-01-16T07:32:35;96999.09;;;0.14;100.00
59831;BME280;45711;50.108;13.712;2024-01-16T07:35:01;96994.28;;;0.23;100.00
59831;BME280;45711;50.108;13.712;2024-01-16T07:37:27;97002.38;;;0.21;100.00
59831;BME280;45711;50.108;13.712;2024-01-16T07:39:53;97001.94;;;0.13;100.00
59831;BME280;45711;50.108;13.712;2024-01-16T07:42:18;97000.94;;;0.14;100.00
59831;BME280;45711;50.108;13.712;2024-01-16T07:44:44;97013.50;;;0.23;100.00
59831;BME280;45711;50.108;13.712;2024-01-16T07:47:11;97012.25;;;0.14;100.00
59831;BME280;45711;50.108;13.712;2024-01-16T07:49:36;97016.53;;;0.32;100.00
59831;BME280;45711;50.108;13.712;2024-01-16T07:52:02;97014.97;;;0.19;100.00
59831;BME280;45711;50.108;13.712;2024-01-16T07:54:28;97021.94;;;0.25;100.00
59831;BME280;45711;50.108;13.712;2024-01-16T07:56:54;97016.38;;;0.39;100.00
59831;BME280;45711;50.108;13.712;2024-01-16T07:59:19;97013.91;;;0.32;100.00
59831;BME280;45711;50.108;13.712;2024-01-16T08:01:45;97021.56;;;0.34;100.00
59831;BME280;45711;50.108;13.712;2024-01-16T08:04:12;97017.81;;;0.30;100.00
59831;BME280;45711;50.108;13.712;2024-01-16T08:06:38;97020.06;;;0.38;100.00
59831;BME280;45711;50.108;13.712;2024-01-16T08:09:03;97017.16;;;0.22;100.00
59831;BME280;45711;50.108;13.712;2024-01-16T08:11:29;97027.78;;;0.28;100.00
59831;BME280;45711;50.108;13.712;2024-01-16T08:13:56;97028.91;;;0.32;100.00
59831;BME280;45711;50.108;13.712;2024-01-16T08:16:21;97027.56;;;0.17;100.00
59831;BME280;45711;50.108;13.712;2024-01-16T08:18:47;97037.06;;;0.18;100.00
59831;BME280;45711;50.108;13.712;2024-01-16T08:21:14;97038.03;;;0.41;100.00
59831;BME280;45711;50.108;13.712;2024-01-16T08:23:40;97045.75;;;0.31;100.00
59831;BME280;45711;50.108;13.712;2024-01-16T08:26:05;97043.84;;;0.43;100.00
59831;BME280;45711;50.108;13.712;2024-01-16T08:28:31;97050.09;;;0.25;100.00
59831;BME280;45711;50.108;13.712;2024-01-16T08:30:56;97054.63;;;0.41;100.00
59831;BME280;45711;50.108;13.712;2024-01-16T08:33:24;97059.41;;;0.44;100.00
59831;BME280;45711;50.108;13.712;2024-01-16T08:35:49;97057.50;;;0.40;100.00
59831;BME280;45711;50.108;13.712;2024-01-16T08:38:16;97059.53;;;0.38;100.00
59831;BME280;45711;50.108;13.712;2024-01-16T08:40:42;97058.03;;;0.42;100.00
59831;BME280;45711;50.108;13.712;2024-01-16T08:43:07;97062.19;;;0.38;100.00
59831;BME280;45711;50.108;13.712;2024-01-16T08:45:33;97072.50;;;0.39;100.00
59831;BME280;45711;50.108;13.712;2024-01-16T08:47:58;97070.88;;;0.38;100.00
59831;BME280;45711;50.108;13.712;2024-01-16T08:50:25;97077.50;;;0.41;100.00
59831;BME280;45711;50.108;13.712;2024-01-16T08:52:50;97069.53;;;0.36;100.00
59831;BME280;45711;50.108;13.712;2024-01-16T08:55:17;97081.19;;;0.40;100.00
59831;BME280;45711;50.108;13.712;2024-01-16T08:57:43;97076.47;;;0.42;100.00
59831;BME280;45711;50.108;13.712;2024-01-16T09:00:09;97069.47;;;0.47;100.00
59831;BME280;45711;50.108;13.712;2024-01-16T09:02:35;97069.63;;;0.41;100.00
59831;BME280;45711;50.108;13.712;2024-01-16T09:05:00;97072.00;;;0.42;100.00
59831;BME280;45711;50.108;13.712;2024-01-16T09:07:26;97065.38;;;0.40;100.00
59831;BME280;45711;50.108;13.712;2024-01-16T09:09:52;97073.00;;;0.53;100.00
59831;BME280;45711;50.108;13.712;2024-01-16T09:12:19;97077.16;;;0.49;100.00
59831;BME280;45711;50.108;13.712;2024-01-16T09:14:45;97075.66;;;0.53;100.00
59831;BME280;45711;50.108;13.712;2024-01-16T09:17:10;97072.69;;;0.38;100.00
59831;BME280;45711;50.108;13.712;2024-01-16T09:19:36;97076.00;;;0.45;100.00
59831;BME280;45711;50.108;13.712;2024-01-16T09:22:01;97081.50;;;0.43;100.00
59831;BME280;45711;50.108;13.712;2024-01-16T09:24:28;97090.22;;;0.44;100.00
59831;BME280;45711;50.108;13.712;2024-01-16T09:26:54;97086.28;;;0.46;100.00
59831;BME280;45711;50.108;13.712;2024-01-16T09:29:21;97083.25;;;0.26;100.00
59831;BME280;45711;50.108;13.712;2024-01-16T09:31:47;97088.00;;;0.53;100.00
59831;BME280;45711;50.108;13.712;2024-01-16T09:34:13;97088.09;;;0.58;100.00
59831;BME280;45711;50.108;13.712;2024-01-16T09:36:39;97079.88;;;0.54;100.00
59831;BME280;45711;50.108;13.712;2024-01-16T09:39:06;97090.16;;;0.56;100.00
59831;BME280;45711;50.108;13.712;2024-01-16T09:41:39;97080.13;;;0.53;100.00
59831;BME280;45711;50.108;13.712;2024-01-16T09:44:05;97078.50;;;0.52;100.00
59831;BME280;45711;50.108;13.712;2024-01-16T09:46:34;97078.06;;;0.43;100.00
59831;BME280;45711;50.108;13.712;2024-01-16T09:49:02;97089.94;;;0.57;100.00
59831;BME280;45711;50.108;13.712;2024-01-16T09:51:28;97085.38;;;0.53;100.00
59831;BME280;45711;50.108;13.712;2024-01-16T09:53:54;97081.63;;;0.48;100.00
59831;BME280;45711;50.108;13.712;2024-01-16T09:56:22;97080.94;;;0.41;100.00
59831;BME280;45711;50.108;13.712;2024-01-16T09:58:50;97087.78;;;0.42;100.00
59831;BME280;45711;50.108;13.712;2024-01-16T10:01:20;97079.78;;;0.49;100.00
59831;BME280;45711;50.108;13.712;2024-01-16T10:03:50;97083.22;;;0.49;100.00
59831;BME280;45711;50.108;13.712;2024-01-16T10:06:17;97076.41;;;0.65;100.00
59831;BME280;45711;50.108;13.712;2024-01-16T10:08:45;97076.88;;;0.62;100.00
59831;BME280;45711;50.108;13.712;2024-01-16T10:11:11;97070.91;;;0.67;100.00
59831;BME280;45711;50.108;13.712;2024-01-16T10:13:37;97074.69;;;0.59;100.00
59831;BME280;45711;50.108;13.712;2024-01-16T10:16:03;97069.69;;;0.58;100.00
59831;BME280;45711;50.108;13.712;2024-01-16T10:18:29;97064.25;;;0.64;100.00
59831;BME280;45711;50.108;13.712;2024-01-16T10:21:00;97070.94;;;0.55;100.00
59831;BME280;45711;50.108;13.712;2024-01-16T10:23:28;97072.47;;;0.68;100.00
59831;BME280;45711;50.108;13.712;2024-01-16T10:26:11;97067.03;;;0.58;100.00
59831;BME280;45711;50.108;13.712;2024-01-16T10:28:38;97063.81;;;0.56;100.00
59831;BME280;45711;50.108;13.712;2024-01-16T10:31:05;97066.13;;;0.52;100.00
59831;BME280;45711;50.108;13.712;2024-01-16T10:33:31;97060.91;;;0.69;100.00
59831;BME280;45711;50.108;13.712;2024-01-16T10:36:13;97069.69;;;0.58;100.00
59831;BME280;45711;50.108;13.712;2024-01-16T10:38:40;97065.44;;;0.57;100.00
59831;BME280;45711;50.108;13.712;2024-01-16T10:41:08;97074.22;;;0.62;100.00
59831;BME280;45711;50.108;13.712;2024-01-16T10:43:34;97086.22;;;0.70;100.00
59831;BME280;45711;50.108;13.712;2024-01-16T10:46:07;97078.78;;;0.67;100.00
59831;BME280;45711;50.108;13.712;2024-01-16T10:48:33;97076.34;;;0.48;99.39
59831;BME280;45711;50.108;13.712;2024-01-16T10:51:01;97082.84;;;0.58;100.00
59831;BME280;45711;50.108;13.712;2024-01-16T10:53:32;97078.91;;;0.60;100.00
59831;BME280;45711;50.108;13.712;2024-01-16T10:55:59;97086.28;;;0.58;99.85
59831;BME280;45711;50.108;13.712;2024-01-16T10:58:25;97086.03;;;0.60;100.00
59831;BME280;45711;50.108;13.712;2024-01-16T11:00:52;97086.53;;;0.73;96.88
59831;BME280;45711;50.108;13.712;2024-01-16T11:03:19;97068.88;;;0.57;92.31
59831;BME280;45711;50.108;13.712;2024-01-16T11:05:48;97079.16;;;0.59;93.50
59831;BME280;45711;50.108;13.712;2024-01-16T11:08:15;97071.03;;;0.60;95.36
59831;BME280;45711;50.108;13.712;2024-01-16T11:10:47;97070.94;;;0.55;95.60
59831;BME280;45711;50.108;13.712;2024-01-16T11:13:14;97069.19;;;0.61;96.81
59831;BME280;45711;50.108;13.712;2024-01-16T11:15:44;97063.25;;;0.65;97.74
59831;BME280;45711;50.108;13.712;2024-01-16T11:18:14;97058.19;;;0.64;96.88
59831;BME280;45711;50.108;13.712;2024-01-16T11:20:41;97057.97;;;0.65;97.42
59831;BME280;45711;50.108;13.712;2024-01-16T11:23:08;97059.47;;;0.61;96.19
59831;BME280;45711;50.108;13.712;2024-01-16T11:25:34;97059.47;;;0.61;95.87
59831;BME280;45711;50.108;13.712;2024-01-16T11:28:10;97060.72;;;0.59;97.36
59831;BME280;45711;50.108;13.712;2024-01-16T11:30:37;97056.25;;;0.59;96.74
59831;BME280;45711;50.108;13.712;2024-01-16T11:33:03;97062.69;;;0.52;96.03
59831;BME280;45711;50.108;13.712;2024-01-16T11:35:32;97060.59;;;0.65;97.06
59831;BME280;45711;50.108;13.712;2024-01-16T11:38:04;97064.03;;;0.66;97.41
59831;BME280;45711;50.108;13.712;2024-01-16T11:40:32;97063.09;;;0.72;97.94
59831;BME280;45711;50.108;13.712;2024-01-16T11:42:58;97051.47;;;0.56;95.70
59831;BME280;45711;50.108;13.712;2024-01-16T11:45:49;97061.41;;;0.66;97.58
59831;BME280;45711;50.108;13.712;2024-01-16T11:48:16;97054.13;;;0.73;98.77
59831;BME280;45711;50.108;13.712;2024-01-16T11:50:43;97052.03;;;0.58;94.81
59831;BME280;45711;50.108;13.712;2024-01-16T11:53:09;97053.28;;;0.56;97.20
59831;BME280;45711;50.108;13.712;2024-01-16T11:55:36;97052.03;;;0.58;97.32
59831;BME280;45711;50.108;13.712;2024-01-16T11:58:33;97059.00;;;0.64;98.41
59831;BME280;45711;50.108;13.712;2024-01-16T12:01:04;97057.25;;;0.70;98.17
59831;BME280;45711;50.108;13.712;2024-01-16T12:03:30;97064.25;;;0.64;97.18
59831;BME280;45711;50.108;13.712;2024-01-16T12:05:56;97062.75;;;0.68;97.74
59831;BME280;45711;50.108;13.712;2024-01-16T12:08:22;97057.06;;;0.60;97.31
59831;BME280;45711;50.108;13.712;2024-01-16T12:10:48;97067.94;;;0.63;95.91
59831;BME280;45711;50.108;13.712;2024-01-16T12:13:14;97070.09;;;0.66;98.47
59831;BME280;45711;50.108;13.712;2024-01-16T12:15:40;97075.81;;;0.63;98.54
59831;BME280;45711;50.108;13.712;2024-01-16T12:18:08;97066.00;;;0.59;98.18
59831;BME280;45711;50.108;13.712;2024-01-16T12:20:34;97066.56;;;0.61;95.23
59831;BME280;45711;50.108;13.712;2024-01-16T12:23:01;97064.16;;;0.59;97.55
59831;BME280;45711;50.108;13.712;2024-01-16T12:25:29;97065.56;;;0.50;94.82
59831;BME280;45711;50.108;13.712;2024-01-16T12:27:56;97065.19;;;0.58;97.01
59831;BME280;45711;50.108;13.712;2024-01-16T12:30:25;97065.28;;;0.63;97.20
59831;BME280;45711;50.108;13.712;2024-01-16T12:33:02;97059.22;;;0.63;97.40
59831;BME280;45711;50.108;13.712;2024-01-16T12:35:30;97049.75;;;0.62;97.62
59831;BME280;45711;50.108;13.712;2024-01-16T12:37:59;97051.47;;;0.56;97.58
59831;BME280;45711;50.108;13.712;2024-01-16T12:40:26;97048.59;;;0.58;97.97
59831;BME280;45711;50.108;13.712;2024-01-16T12:42:52;97046.09;;;0.51;96.90
59831;BME280;45711;50.108;13.712;2024-01-16T12:45:19;97045.19;;;0.57;98.28
59831;BME280;45711;50.108;13.712;2024-01-16T12:47:50;97031.91;;;0.52;94.85